createdAt,value
2022-12-25T00:03:29.005Z,100298.72
2022-12-25T00:08:30.589Z,100296.03
2022-12-25T00:13:33.210Z,100298.40
2022-12-25T00:18:34.961Z,100293.91
2022-12-25T00:23:36.268Z,100303.45
2022-12-25T00:28:38.849Z,100305.42
2022-12-25T00:33:42.432Z,100309.33
2022-12-25T00:38:46.137Z,100309.98
2022-12-25T00:43:47.451Z,100318.73
2022-12-25T00:48:48.824Z,100329.58
2022-12-25T00:53:50.138Z,100332.55
2022-12-25T00:58:51.445Z,100340.83
2022-12-25T01:03:52.828Z,100351.45
2022-12-25T01:09:12.785Z,100364.05
2022-12-25T01:14:14.407Z,100369.11
2022-12-25T01:19:15.901Z,100378.63
2022-12-25T01:24:17.914Z,100376.46
2022-12-25T01:29:19.178Z,100369.48
2022-12-25T01:34:20.850Z,100375.02
2022-12-25T01:39:22.561Z,100385.33
2022-12-25T01:44:47.761Z,100384.60
2022-12-25T01:49:50.305Z,100376.35
2022-12-25T01:54:57.147Z,100365.45
2022-12-25T02:00:00.312Z,100364.83
2022-12-25T02:05:08.296Z,100357.98
2022-12-25T02:10:11.213Z,100358.48
2022-12-25T02:15:20.269Z,100371.59
2022-12-25T02:20:43.565Z,100381.59
2022-12-25T02:26:22.130Z,100387.71
2022-12-25T02:31:52.464Z,100393.92
2022-12-25T02:37:15.952Z,100399.55
2022-12-25T02:42:59.978Z,100392.59
2022-12-25T02:48:21.915Z,100395.64
2022-12-25T02:53:41.931Z,100394.81
2022-12-25T02:59:04.360Z,100396.27
2022-12-25T03:04:29.455Z,100402.14
2022-12-25T03:09:57.858Z,100407.21
2022-12-25T03:15:19.487Z,100412.02
2022-12-25T03:20:39.671Z,100408.90
2022-12-25T03:26:00.182Z,100407.08
2022-12-25T03:31:15.127Z,100403.57
2022-12-25T03:36:28.441Z,100400.27
2022-12-25T03:42:01.194Z,100404.55
2022-12-25T03:47:35.666Z,100401.11
2022-12-25T03:52:57.590Z,100402.79
2022-12-25T03:58:17.431Z,100406.84
2022-12-25T04:03:37.460Z,100418.35
2022-12-25T04:08:57.720Z,100415.48
2022-12-25T04:14:17.986Z,100409.52
2022-12-25T04:19:37.800Z,100413.80
2022-12-25T04:24:57.845Z,100405.02
2022-12-25T04:30:17.898Z,100418.23
2022-12-25T04:35:38.152Z,100429.90
2022-12-25T04:40:39.789Z,100428.90
2022-12-25T04:45:41.043Z,100419.33
2022-12-25T04:50:42.417Z,100416.11
2022-12-25T04:55:43.713Z,100414.45
2022-12-25T05:00:44.953Z,100417.60
2022-12-25T05:05:47.829Z,100419.11
2022-12-25T05:10:49.889Z,100427.41
2022-12-25T05:15:51.742Z,100428.80
2022-12-25T05:20:54.252Z,100429.62
2022-12-25T05:25:55.939Z,100430.82
2022-12-25T05:30:57.365Z,100439.18
2022-12-25T05:36:02.963Z,100453.40
2022-12-25T05:41:04.861Z,100454.80
2022-12-25T05:46:08.281Z,100459.20
2022-12-25T05:51:12.119Z,100460.61
2022-12-25T05:56:13.433Z,100454.77
2022-12-25T06:01:20.905Z,100465.63
2022-12-25T06:06:22.284Z,100465.61
2022-12-25T06:11:23.788Z,100474.20
2022-12-25T06:16:25.112Z,100479.53
2022-12-25T06:21:26.435Z,100480.54
2022-12-25T06:26:27.787Z,100488.67
2022-12-25T06:31:29.112Z,100499.61
2022-12-25T06:36:30.924Z,100505.58
2022-12-25T06:41:32.310Z,100512.13
2022-12-25T06:46:33.791Z,100517.59
2022-12-25T06:51:35.232Z,100523.96
2022-12-25T06:56:37.097Z,100540.39
2022-12-25T07:01:45.965Z,100562.98
2022-12-25T07:06:47.809Z,100570.13
2022-12-25T07:11:49.075Z,100572.31
2022-12-25T07:16:50.583Z,100566.56
2022-12-25T07:21:53.068Z,100577.95
2022-12-25T07:26:54.283Z,100585.08
2022-12-25T07:31:55.968Z,100595.59
2022-12-25T07:36:57.375Z,100604.05
2022-12-25T07:41:59.579Z,100606.41
2022-12-25T07:47:02.188Z,100611.61
2022-12-25T07:52:03.987Z,100621.20
2022-12-25T07:57:05.300Z,100628.09
2022-12-25T08:02:07.056Z,100625.92
2022-12-25T08:07:08.506Z,100628.88
2022-12-25T08:12:09.708Z,100636.11
2022-12-25T08:17:11.123Z,100643.61
2022-12-25T08:22:12.668Z,100649.78
2022-12-25T08:27:13.977Z,100654.91
2022-12-25T08:32:15.591Z,100660.69
2022-12-25T08:37:17.019Z,100661.00
2022-12-25T08:42:18.531Z,100661.35
2022-12-25T08:47:19.824Z,100665.20
2022-12-25T08:52:21.099Z,100669.44
2022-12-25T08:57:22.378Z,100674.84
2022-12-25T09:02:23.780Z,100674.19
2022-12-25T09:07:25.561Z,100672.08
2022-12-25T09:12:26.841Z,100671.90
2022-12-25T09:17:28.165Z,100673.33
2022-12-25T09:22:29.452Z,100675.02
2022-12-25T09:27:31.156Z,100677.61
2022-12-25T09:32:32.463Z,100681.02
2022-12-25T09:37:34.821Z,100675.33
2022-12-25T09:42:36.265Z,100679.56
2022-12-25T09:47:40.701Z,100678.02
2022-12-25T09:53:03.916Z,100682.67
2022-12-25T09:58:12.336Z,100683.14
2022-12-25T10:03:32.408Z,100684.13
2022-12-25T10:09:12.300Z,100692.39
2022-12-25T10:14:23.045Z,100692.80
2022-12-25T10:19:46.467Z,100684.85
2022-12-25T10:24:53.988Z,100689.97
2022-12-25T10:29:55.440Z,100699.25
2022-12-25T10:34:57.096Z,100700.52
2022-12-25T10:39:58.501Z,100690.98
2022-12-25T10:45:04.482Z,100677.86
2022-12-25T10:50:27.777Z,100674.40
2022-12-25T10:55:30.046Z,100675.82
2022-12-25T11:00:32.479Z,100673.56
2022-12-25T11:05:36.357Z,100673.64
2022-12-25T11:10:43.147Z,100676.80
2022-12-25T11:15:47.805Z,100669.80
2022-12-25T11:21:31.933Z,100672.83
2022-12-25T11:26:50.300Z,100679.29
2022-12-25T11:31:54.897Z,100685.73
2022-12-25T11:36:58.261Z,100684.73
2022-12-25T11:42:45.562Z,100690.64
2022-12-25T11:47:55.145Z,100696.01
2022-12-25T11:53:00.759Z,100701.38
2022-12-25T11:58:11.879Z,100704.56
2022-12-25T12:03:18.363Z,100713.24
2022-12-25T12:08:19.738Z,100712.27
2022-12-25T12:13:44.896Z,100711.15
2022-12-25T12:18:50.288Z,100713.27
2022-12-25T12:24:20.101Z,100705.91
2022-12-25T12:29:27.101Z,100696.17
2022-12-25T12:34:36.828Z,100688.02
2022-12-25T12:39:40.003Z,100678.36
2022-12-25T12:44:42.413Z,100680.98
2022-12-25T12:49:43.771Z,100687.45
2022-12-25T12:55:05.850Z,100689.28
2022-12-25T13:00:16.346Z,100685.02
2022-12-25T13:05:56.283Z,100684.92
2022-12-25T13:11:21.717Z,100697.05
2022-12-25T13:16:44.156Z,100701.14
2022-12-25T13:22:30.489Z,100704.48
2022-12-25T13:27:33.137Z,100706.27
2022-12-25T13:32:34.913Z,100700.34
2022-12-25T13:37:36.526Z,100694.04
2022-12-25T13:42:41.286Z,100696.55
2022-12-25T13:47:48.671Z,100701.61
2022-12-25T13:52:54.557Z,100699.77
2022-12-25T13:58:02.651Z,100699.70
2022-12-25T14:03:06.873Z,100698.92
2022-12-25T14:08:18.558Z,100697.86
2022-12-25T14:13:24.285Z,100696.41
2022-12-25T14:18:26.581Z,100693.96
2022-12-25T14:23:38.655Z,100688.79
2022-12-25T14:28:39.986Z,100695.38
2022-12-25T14:33:41.881Z,100710.02
2022-12-25T14:38:43.279Z,100723.09
2022-12-25T14:43:52.876Z,100731.29
2022-12-25T14:49:37.860Z,100742.20
2022-12-25T14:54:43.420Z,100746.78
2022-12-25T14:59:44.923Z,100748.57
2022-12-25T15:04:46.510Z,100744.44
2022-12-25T15:09:47.956Z,100739.08
2022-12-25T15:14:49.301Z,100736.58
2022-12-25T15:19:52.259Z,100731.67
2022-12-25T15:24:58.761Z,100728.98
2022-12-25T15:30:11.135Z,100733.83
2022-12-25T15:35:19.025Z,100728.32
2022-12-25T15:40:20.736Z,100723.52
2022-12-25T15:45:45.777Z,100709.77
2022-12-25T15:50:47.115Z,100693.50
2022-12-25T15:55:48.485Z,100686.25
2022-12-25T16:00:50.072Z,100687.48
2022-12-25T16:05:51.371Z,100696.16
2022-12-25T16:10:53.123Z,100713.55
2022-12-25T16:15:54.562Z,100719.59
2022-12-25T16:20:57.434Z,100717.84
2022-12-25T16:25:58.697Z,100719.67
2022-12-25T16:31:00.572Z,100727.41
2022-12-25T16:36:01.933Z,100728.42
2022-12-25T16:41:03.434Z,100724.12
2022-12-25T16:46:23.748Z,100716.54
2022-12-25T16:51:25.129Z,100728.24
2022-12-25T16:56:27.675Z,100726.39
2022-12-25T17:01:29.687Z,100707.09
2022-12-25T17:06:31.517Z,100710.90
2022-12-25T17:11:32.893Z,100710.65
2022-12-25T17:16:36.715Z,100713.14
2022-12-25T17:21:38.191Z,100704.93
2022-12-25T17:26:40.808Z,100699.52
2022-12-25T17:31:42.204Z,100703.70
2022-12-25T17:36:43.678Z,100700.19
2022-12-25T17:41:45.437Z,100697.25
2022-12-25T17:46:47.610Z,100697.46
2022-12-25T17:51:49.686Z,100698.39
2022-12-25T17:56:51.051Z,100699.89
2022-12-25T18:01:52.744Z,100698.46
2022-12-25T18:06:56.294Z,100689.50
2022-12-25T18:11:57.679Z,100688.92
2022-12-25T18:16:59.123Z,100687.02
2022-12-25T18:22:00.745Z,100682.67
2022-12-25T18:27:02.055Z,100674.08
2022-12-25T18:32:04.798Z,100663.61
2022-12-25T18:37:06.119Z,100665.03
2022-12-25T18:42:26.228Z,100669.85
2022-12-25T18:47:27.745Z,100666.04
2022-12-25T18:52:47.894Z,100663.77
2022-12-25T18:57:52.275Z,100660.48
2022-12-25T19:02:58.248Z,100657.58
2022-12-25T19:07:59.779Z,100649.92
2022-12-25T19:13:01.127Z,100641.41
2022-12-25T19:18:02.864Z,100634.58
2022-12-25T19:23:04.573Z,100631.02
2022-12-25T19:28:06.211Z,100621.16
2022-12-25T19:33:12.359Z,100617.16
2022-12-25T19:38:19.719Z,100610.71
2022-12-25T19:43:21.084Z,100606.23
2022-12-25T19:48:23.011Z,100589.98
2022-12-25T19:53:24.453Z,100581.50
2022-12-25T19:58:25.717Z,100578.69
2022-12-25T20:03:27.632Z,100586.02
2022-12-25T20:08:29.170Z,100596.38
2022-12-25T20:13:30.864Z,100600.37
2022-12-25T20:18:41.800Z,100600.70
2022-12-25T20:23:45.790Z,100597.37
2022-12-25T20:28:47.123Z,100595.83
2022-12-25T20:33:48.971Z,100595.96
2022-12-25T20:38:53.430Z,100596.23
2022-12-25T20:43:55.954Z,100593.05
2022-12-25T20:48:57.563Z,100590.67
2022-12-25T20:53:59.017Z,100578.64
2022-12-25T20:59:00.658Z,100572.88
2022-12-25T21:04:02.751Z,100569.05
2022-12-25T21:09:04.968Z,100554.14
2022-12-25T21:14:06.290Z,100547.08
2022-12-25T21:19:10.245Z,100546.04
2022-12-25T21:24:12.143Z,100545.70
2022-12-25T21:29:13.592Z,100530.40
2022-12-25T21:34:14.883Z,100517.16
2022-12-25T21:39:16.599Z,100506.11
2022-12-25T21:44:17.952Z,100498.81
2022-12-25T21:49:38.123Z,100502.00
2022-12-25T21:54:39.397Z,100494.89
2022-12-25T21:59:40.769Z,100486.97
2022-12-25T22:04:42.237Z,100485.48
2022-12-25T22:09:48.598Z,100476.84
2022-12-25T22:14:54.342Z,100467.13
2022-12-25T22:19:57.294Z,100453.27
2022-12-25T22:25:01.219Z,100446.98
2022-12-25T22:30:09.582Z,100434.37
2022-12-25T22:35:12.572Z,100419.48
2022-12-25T22:40:16.655Z,100406.58
2022-12-25T22:45:18.168Z,100393.55
2022-12-25T22:50:19.527Z,100380.45
2022-12-25T22:55:20.971Z,100375.80
2022-12-25T23:00:22.282Z,100367.32
2022-12-25T23:05:24.044Z,100363.61
2022-12-25T23:10:25.334Z,100361.00
2022-12-25T23:15:27.426Z,100352.02
2022-12-25T23:20:47.621Z,100333.12
2022-12-25T23:26:07.760Z,100322.55
2022-12-25T23:31:09.097Z,100306.34
2022-12-25T23:36:10.977Z,100322.92
2022-12-25T23:41:12.263Z,100336.00
2022-12-25T23:46:14.708Z,100338.38
2022-12-25T23:51:16.065Z,100331.45
2022-12-25T23:56:17.337Z,100337.49
